createdAt,value
2019-06-15T00:00:58.213Z,9.80
2019-06-15T00:02:05.135Z,11.83
2019-06-15T00:03:13.107Z,8.33
2019-06-15T00:04:19.955Z,8.83
2019-06-15T00:05:27.562Z,10.63
2019-06-15T00:06:34.691Z,8.47
2019-06-15T00:07:42.806Z,9.67
2019-06-15T00:08:49.888Z,11.00
2019-06-15T00:09:57.430Z,8.17
2019-06-15T00:11:04.325Z,10.77
2019-06-15T00:12:11.955Z,12.03
2019-06-15T00:13:18.708Z,9.40
2019-06-15T00:14:26.249Z,13.07
2019-06-15T00:15:33.383Z,11.03
2019-06-15T00:16:40.964Z,11.30
2019-06-15T00:17:47.744Z,10.27
2019-06-15T00:18:55.344Z,12.57
2019-06-15T00:20:02.612Z,10.60
2019-06-15T00:21:10.489Z,11.53
2019-06-15T00:22:17.597Z,12.70
2019-06-15T00:23:25.483Z,11.40
2019-06-15T00:24:35.592Z,11.23
2019-06-15T00:25:41.723Z,12.23
2019-06-15T00:26:48.873Z,15.03
2019-06-15T00:27:56.445Z,21.17
2019-06-15T00:29:03.591Z,11.60
2019-06-15T00:30:12.443Z,11.10
2019-06-15T00:31:19.367Z,14.10
2019-06-15T00:32:27.164Z,14.60
2019-06-15T00:33:34.842Z,17.00
2019-06-15T00:34:42.812Z,13.33
2019-06-15T00:35:49.569Z,21.40
2019-06-15T00:36:57.597Z,12.90
2019-06-15T00:38:04.556Z,15.00
2019-06-15T00:39:12.166Z,14.40
2019-06-15T00:40:19.020Z,15.63
2019-06-15T00:41:26.631Z,15.40
2019-06-15T00:42:33.538Z,15.90
2019-06-15T00:43:41.097Z,16.20
2019-06-15T00:44:47.873Z,15.10
2019-06-15T00:45:56.109Z,14.60
2019-06-15T00:47:03.225Z,20.70
2019-06-15T00:48:11.654Z,21.73
2019-06-15T00:49:18.412Z,16.13
2019-06-15T00:50:26.325Z,14.93
2019-06-15T00:51:33.131Z,18.03
2019-06-15T00:52:41.103Z,16.40
2019-06-15T00:53:48.178Z,17.47
2019-06-15T00:54:55.733Z,17.87
2019-06-15T00:56:02.852Z,16.20
2019-06-15T00:57:10.486Z,21.17
2019-06-15T00:58:17.598Z,21.97
2019-06-15T00:59:25.287Z,20.47
2019-06-15T01:00:32.168Z,22.90
2019-06-15T01:01:39.717Z,18.47
2019-06-15T01:02:46.829Z,15.93
2019-06-15T01:03:55.864Z,18.40
2019-06-15T01:05:02.834Z,19.70
2019-06-15T01:06:10.757Z,22.20
2019-06-15T01:07:17.604Z,24.33
2019-06-15T01:08:25.172Z,22.53
2019-06-15T01:09:32.722Z,23.43
2019-06-15T01:10:40.273Z,25.90
2019-06-15T01:11:47.017Z,27.53
2019-06-15T01:12:54.730Z,26.50
2019-06-15T01:14:02.237Z,25.87
2019-06-15T01:15:10.849Z,22.83
2019-06-15T01:16:17.933Z,21.30
2019-06-15T01:17:44.507Z,23.03
2019-06-15T01:18:51.644Z,30.30
2019-06-15T01:19:59.668Z,22.87
2019-06-15T01:21:06.432Z,22.23
2019-06-15T01:22:13.953Z,27.73
2019-06-15T01:23:21.814Z,27.30
2019-06-15T01:24:29.383Z,23.70
2019-06-15T01:25:36.473Z,24.80
2019-06-15T01:26:44.017Z,29.07
2019-06-15T01:27:50.785Z,32.17
2019-06-15T01:28:58.694Z,26.10
2019-06-15T01:30:06.783Z,31.70
2019-06-15T01:31:14.340Z,31.73
2019-06-15T01:32:21.089Z,26.23
2019-06-15T01:33:29.338Z,25.40
2019-06-15T01:34:36.142Z,33.50
2019-06-15T01:35:43.933Z,26.00
2019-06-15T01:36:51.053Z,26.73
2019-06-15T01:37:58.586Z,25.80
2019-06-15T01:39:06.497Z,28.50
2019-06-15T01:40:16.267Z,35.50
2019-06-15T01:41:23.447Z,28.10
2019-06-15T01:42:31.126Z,27.10
2019-06-15T01:43:37.892Z,26.47
2019-06-15T01:44:45.495Z,27.37
2019-06-15T01:45:52.683Z,26.17
2019-06-15T01:47:00.626Z,25.30
2019-06-15T01:48:07.478Z,26.17
2019-06-15T01:49:15.354Z,30.23
2019-06-15T01:50:22.427Z,25.13
2019-06-15T01:51:30.337Z,27.67
2019-06-15T01:52:37.609Z,24.87
2019-06-15T01:53:45.617Z,27.67
2019-06-15T01:54:52.566Z,27.07
2019-06-15T01:56:00.125Z,25.80
2019-06-15T01:57:07.459Z,28.43
2019-06-15T01:58:15.003Z,25.33
2019-06-15T01:59:21.958Z,26.10
2019-06-15T02:00:34.045Z,27.97
2019-06-15T02:01:40.798Z,27.50
2019-06-15T02:02:48.690Z,29.93
2019-06-15T02:03:55.517Z,28.93
2019-06-15T02:05:03.465Z,27.93
2019-06-15T02:06:10.265Z,28.33
2019-06-15T02:07:17.834Z,30.90
2019-06-15T02:08:24.635Z,29.60
2019-06-15T02:09:32.294Z,32.33
2019-06-15T02:10:39.781Z,35.20
2019-06-15T02:11:47.356Z,29.30
2019-06-15T02:12:54.179Z,27.90
2019-06-15T02:14:02.471Z,30.07
2019-06-15T02:15:10.473Z,36.87
2019-06-15T02:16:18.028Z,32.47
2019-06-15T02:17:25.186Z,36.53
2019-06-15T02:18:32.746Z,35.87
2019-06-15T02:19:39.885Z,37.87
2019-06-15T02:20:47.447Z,33.53
2019-06-15T02:21:54.234Z,33.50
2019-06-15T02:23:01.781Z,43.57
2019-06-15T02:24:08.774Z,32.17
2019-06-15T02:25:35.334Z,38.53
2019-06-15T02:26:33.048Z,37.20
2019-06-15T02:27:41.006Z,38.00
2019-06-15T02:28:47.795Z,39.63
2019-06-15T02:29:55.668Z,43.63
2019-06-15T02:31:03.050Z,49.50
2019-06-15T02:32:10.939Z,46.40
2019-06-15T02:33:18.226Z,43.00
2019-06-15T02:34:26.160Z,44.73
2019-06-15T02:35:33.314Z,42.70
2019-06-15T02:36:41.258Z,42.60
2019-06-15T02:37:48.220Z,44.03
2019-06-15T02:38:55.777Z,48.23
2019-06-15T02:40:02.851Z,44.80
2019-06-15T02:41:10.596Z,45.70
2019-06-15T02:42:17.722Z,54.60
2019-06-15T02:43:25.748Z,47.53
2019-06-15T02:44:32.993Z,57.00
2019-06-15T02:45:40.614Z,54.20
2019-06-15T02:46:47.946Z,55.67
2019-06-15T02:47:55.979Z,53.43
2019-06-15T02:49:02.775Z,63.40
2019-06-15T02:50:10.982Z,61.87
2019-06-15T02:51:17.970Z,57.00
2019-06-15T02:52:26.171Z,62.07
2019-06-15T02:53:33.078Z,56.53
2019-06-15T02:54:40.628Z,55.90
2019-06-15T02:55:50.920Z,58.83
2019-06-15T02:56:57.109Z,65.47
2019-06-15T02:58:04.195Z,55.50
2019-06-15T02:59:12.183Z,57.37
2019-06-15T03:00:53.866Z,54.07
2019-06-15T03:02:01.996Z,58.13
2019-06-15T03:03:08.748Z,65.20
2019-06-15T03:04:16.297Z,63.10
2019-06-15T03:05:23.263Z,69.30
2019-06-15T03:06:30.900Z,68.27
2019-06-15T03:07:38.190Z,70.40
2019-06-15T03:08:46.195Z,57.67
2019-06-15T03:09:54.349Z,63.73
2019-06-15T03:11:01.887Z,65.70
2019-06-15T03:12:09.282Z,67.90
2019-06-15T03:13:17.182Z,71.40
2019-06-15T03:14:24.481Z,70.30
2019-06-15T03:15:32.130Z,68.90
2019-06-15T03:16:38.871Z,61.63
2019-06-15T03:17:47.093Z,68.50
2019-06-15T03:18:54.200Z,69.13
2019-06-15T03:20:02.578Z,75.33
2019-06-15T03:21:09.488Z,63.60
2019-06-15T03:22:17.242Z,63.63
2019-06-15T03:23:24.024Z,64.57
2019-06-15T03:24:31.646Z,66.07
2019-06-15T03:25:38.707Z,66.07
2019-06-15T03:26:46.750Z,69.50
2019-06-15T03:27:54.164Z,61.20
2019-06-15T03:29:01.795Z,77.93
2019-06-15T03:30:10.094Z,66.53
2019-06-15T03:31:17.734Z,75.50
2019-06-15T03:32:24.555Z,70.37
2019-06-15T03:33:32.166Z,81.10
2019-06-15T03:34:38.937Z,73.23
2019-06-15T03:35:46.477Z,89.50
2019-06-15T03:36:53.367Z,76.57
2019-06-15T03:38:00.915Z,75.20
2019-06-15T03:39:09.056Z,82.57
2019-06-15T03:40:17.994Z,82.80
2019-06-15T03:41:25.072Z,89.27
2019-06-15T03:42:32.591Z,88.40
2019-06-15T03:43:39.331Z,83.47
2019-06-15T03:44:47.242Z,82.37
2019-06-15T03:45:55.793Z,88.83
2019-06-15T03:47:03.369Z,87.60
2019-06-15T03:48:10.862Z,75.77
2019-06-15T03:49:19.082Z,89.77
2019-06-15T03:50:26.081Z,100.57
2019-06-15T03:51:33.637Z,80.63
2019-06-15T03:52:40.420Z,82.57
2019-06-15T03:53:47.985Z,75.03
2019-06-15T03:54:54.787Z,80.13
2019-06-15T03:56:03.119Z,78.43
2019-06-15T03:57:10.214Z,79.77
2019-06-15T03:58:17.787Z,73.90
2019-06-15T03:59:24.887Z,74.33
2019-06-15T04:00:45.459Z,75.27
2019-06-15T04:01:53.070Z,75.43
2019-06-15T04:03:00.688Z,87.77
2019-06-15T04:04:07.893Z,75.03
2019-06-15T04:05:15.577Z,86.50
2019-06-15T04:06:22.389Z,74.60
2019-06-15T04:07:29.950Z,88.20
2019-06-15T04:08:36.715Z,83.30
2019-06-15T04:09:44.710Z,76.70
2019-06-15T04:10:51.813Z,78.00
2019-06-15T04:11:59.405Z,74.50
2019-06-15T04:13:06.254Z,74.50
2019-06-15T04:14:14.419Z,78.50
2019-06-15T04:15:21.275Z,76.67
2019-06-15T04:16:29.250Z,83.77
2019-06-15T04:17:36.461Z,80.40
2019-06-15T04:18:44.020Z,76.33
2019-06-15T04:19:51.005Z,79.67
2019-06-15T04:20:58.937Z,79.03
2019-06-15T04:22:05.878Z,82.40
2019-06-15T04:23:13.798Z,85.93
2019-06-15T04:24:20.909Z,84.10
2019-06-15T04:25:28.775Z,82.53
2019-06-15T04:26:36.576Z,81.03
2019-06-15T04:27:44.773Z,80.67
2019-06-15T04:28:51.557Z,81.47
2019-06-15T04:29:59.520Z,88.67
2019-06-15T04:31:06.266Z,78.40
2019-06-15T04:32:13.821Z,92.33
2019-06-15T04:33:20.580Z,84.20
2019-06-15T04:34:28.100Z,92.23
2019-06-15T04:35:34.878Z,76.47
2019-06-15T04:36:42.424Z,86.13
2019-06-15T04:37:49.251Z,80.10
2019-06-15T04:38:57.186Z,84.27
2019-06-15T04:40:04.092Z,77.70
2019-06-15T04:41:11.653Z,80.30
2019-06-15T04:42:18.619Z,77.43
2019-06-15T04:43:26.130Z,77.67
2019-06-15T04:44:33.608Z,73.27
2019-06-15T04:45:41.499Z,70.33
2019-06-15T04:46:48.693Z,75.23
2019-06-15T04:47:56.752Z,71.10
2019-06-15T04:49:03.582Z,67.33
2019-06-15T04:50:11.556Z,67.20
2019-06-15T04:51:18.386Z,71.00
2019-06-15T04:52:25.933Z,74.90
2019-06-15T04:53:33.204Z,70.00
2019-06-15T04:54:40.812Z,77.47
2019-06-15T04:55:47.862Z,72.90
2019-06-15T04:56:55.380Z,83.50
2019-06-15T04:58:02.439Z,77.03
2019-06-15T04:59:10.428Z,79.70
2019-06-15T05:00:17.632Z,81.87
2019-06-15T05:01:25.810Z,71.37
2019-06-15T05:02:32.993Z,79.27
2019-06-15T05:03:40.903Z,67.37
2019-06-15T05:04:47.723Z,67.47
2019-06-15T05:05:58.320Z,68.80
2019-06-15T05:07:05.283Z,71.03
2019-06-15T05:08:13.209Z,65.10
2019-06-15T05:09:19.982Z,64.43
2019-06-15T05:10:27.543Z,63.30
2019-06-15T05:11:34.287Z,65.90
2019-06-15T05:12:42.292Z,64.20
2019-06-15T05:13:49.420Z,58.00
2019-06-15T05:14:57.827Z,53.80
2019-06-15T05:16:04.898Z,63.23
2019-06-15T05:17:12.435Z,55.93
2019-06-15T05:18:19.760Z,57.00
2019-06-15T05:19:27.426Z,53.47
2019-06-15T05:20:34.236Z,50.97
2019-06-15T05:21:42.181Z,52.43
2019-06-15T05:22:48.986Z,50.93
2019-06-15T05:23:56.569Z,45.73
2019-06-15T05:25:03.585Z,56.70
2019-06-15T05:26:11.122Z,51.47
2019-06-15T05:27:17.998Z,46.53
2019-06-15T05:28:25.922Z,49.10
2019-06-15T05:29:33.316Z,47.07
2019-06-15T05:30:40.876Z,47.73
2019-06-15T05:31:48.486Z,44.53
2019-06-15T05:32:56.056Z,46.37
2019-06-15T05:34:02.815Z,47.43
2019-06-15T05:35:10.997Z,49.17
2019-06-15T05:36:17.826Z,51.53
2019-06-15T05:37:25.731Z,52.33
2019-06-15T05:38:32.551Z,58.17
2019-06-15T05:39:40.097Z,59.37
2019-06-15T05:40:47.169Z,64.03
2019-06-15T05:41:54.699Z,65.97
2019-06-15T05:43:01.714Z,66.40
2019-06-15T05:44:09.632Z,61.90
2019-06-15T05:45:17.026Z,70.67
2019-06-15T05:46:24.573Z,63.60
2019-06-15T05:47:31.993Z,63.83
2019-06-15T05:48:40.097Z,65.13
2019-06-15T05:49:46.955Z,60.80
2019-06-15T05:50:54.829Z,62.53
2019-06-15T05:52:01.593Z,67.57
2019-06-15T05:53:09.431Z,64.10
2019-06-15T05:54:16.387Z,68.23
2019-06-15T05:55:23.916Z,55.30
2019-06-15T05:56:33.454Z,69.47
2019-06-15T05:57:40.546Z,62.53
2019-06-15T05:58:47.330Z,63.60
2019-06-15T05:59:54.986Z,59.10
2019-06-15T06:01:01.764Z,64.30
2019-06-15T06:02:09.634Z,59.17
2019-06-15T06:03:16.731Z,66.63
2019-06-15T06:04:24.709Z,58.73
2019-06-15T06:05:31.594Z,76.20
2019-06-15T06:06:39.489Z,75.47
2019-06-15T06:07:46.292Z,70.27
2019-06-15T06:08:53.913Z,77.70
2019-06-15T06:10:01.058Z,71.57
2019-06-15T06:11:08.884Z,75.93
2019-06-15T06:12:16.040Z,67.87
2019-06-15T06:13:24.418Z,63.23
2019-06-15T06:14:31.479Z,58.83
2019-06-15T06:15:39.392Z,62.03
2019-06-15T06:16:46.205Z,63.97
2019-06-15T06:17:54.141Z,62.87
2019-06-15T06:19:01.318Z,68.80
2019-06-15T06:20:10.489Z,70.30
2019-06-15T06:21:17.653Z,68.50
2019-06-15T06:22:25.219Z,61.80
2019-06-15T06:23:31.979Z,61.20
2019-06-15T06:24:39.674Z,68.37
2019-06-15T06:25:46.798Z,63.47
2019-06-15T06:26:54.889Z,69.27
2019-06-15T06:28:02.038Z,70.57
2019-06-15T06:29:09.918Z,62.83
2019-06-15T06:30:17.240Z,62.50
2019-06-15T06:31:24.799Z,66.87
2019-06-15T06:32:31.569Z,62.63
2019-06-15T06:33:39.479Z,65.53
2019-06-15T06:34:46.435Z,64.70
2019-06-15T06:35:54.277Z,64.27
2019-06-15T06:37:01.158Z,64.53
2019-06-15T06:38:08.855Z,66.60
2019-06-15T06:39:16.040Z,59.00
2019-06-15T06:40:24.333Z,66.90
2019-06-15T06:41:31.402Z,60.10
2019-06-15T06:42:39.033Z,59.73
2019-06-15T06:43:45.776Z,59.57
2019-06-15T06:44:53.350Z,63.83
2019-06-15T06:46:00.435Z,62.20
2019-06-15T06:47:08.330Z,66.30
2019-06-15T06:48:15.095Z,59.83
2019-06-15T06:49:22.852Z,58.53
2019-06-15T06:50:29.983Z,64.23
2019-06-15T06:51:37.876Z,67.73
2019-06-15T06:52:44.960Z,68.87
2019-06-15T06:53:52.541Z,61.00
2019-06-15T06:54:59.622Z,60.40
2019-06-15T06:56:07.179Z,60.93
2019-06-15T06:57:14.292Z,59.90
2019-06-15T06:58:21.841Z,58.80
2019-06-15T06:59:28.997Z,56.53
2019-06-15T07:00:36.601Z,57.37
2019-06-15T07:01:43.756Z,55.13
2019-06-15T07:02:51.681Z,55.47
2019-06-15T07:03:58.811Z,61.60
2019-06-15T07:05:08.454Z,70.13
2019-06-15T07:06:15.230Z,56.97
2019-06-15T07:07:22.904Z,58.17
2019-06-15T07:08:29.669Z,54.40
2019-06-15T07:09:37.410Z,62.80
2019-06-15T07:10:44.192Z,46.43
2019-06-15T07:11:51.845Z,48.73
2019-06-15T07:12:59.112Z,56.60
2019-06-15T07:14:06.970Z,44.30
2019-06-15T07:15:14.317Z,50.43
2019-06-15T07:16:22.430Z,47.77
2019-06-15T07:17:29.894Z,48.23
2019-06-15T07:18:37.781Z,47.43
2019-06-15T07:19:44.946Z,43.20
2019-06-15T07:20:52.972Z,43.67
2019-06-15T07:21:59.753Z,45.93
2019-06-15T07:23:07.562Z,53.97
2019-06-15T07:24:14.328Z,48.47
2019-06-15T07:25:21.991Z,49.20
2019-06-15T07:26:28.758Z,49.70
2019-06-15T07:27:36.363Z,40.90
2019-06-15T07:28:43.101Z,43.63
2019-06-15T07:29:51.106Z,41.13
2019-06-15T07:30:57.912Z,37.80
2019-06-15T07:32:05.618Z,40.27
2019-06-15T07:33:12.409Z,38.03
2019-06-15T07:34:20.315Z,37.47
2019-06-15T07:35:27.554Z,33.00
2019-06-15T07:36:35.126Z,35.13
2019-06-15T07:37:41.954Z,34.87
2019-06-15T07:38:50.268Z,34.23
2019-06-15T07:39:57.017Z,36.93
2019-06-15T07:41:04.561Z,35.73
2019-06-15T07:42:11.751Z,34.67
2019-06-15T07:43:19.968Z,34.10
2019-06-15T07:44:27.433Z,34.97
2019-06-15T07:45:35.016Z,37.43
2019-06-15T07:46:41.776Z,40.27
2019-06-15T07:47:49.662Z,37.07
2019-06-15T07:48:56.443Z,37.53
2019-06-15T07:50:04.011Z,36.00
2019-06-15T07:51:10.777Z,33.50
2019-06-15T07:52:18.368Z,35.53
2019-06-15T07:53:25.335Z,35.50
2019-06-15T07:54:36.064Z,37.43
2019-06-15T07:55:41.371Z,33.00
2019-06-15T07:56:48.924Z,38.83
2019-06-15T07:57:56.373Z,32.93
2019-06-15T07:59:04.269Z,32.43
2019-06-15T08:00:11.651Z,34.70
2019-06-15T08:01:19.240Z,37.57
2019-06-15T08:02:27.155Z,35.90
2019-06-15T08:03:35.039Z,36.23
2019-06-15T08:04:41.946Z,34.40
2019-06-15T08:05:50.113Z,33.63
2019-06-15T08:06:57.077Z,35.43
2019-06-15T08:08:04.630Z,31.33
2019-06-15T08:09:11.430Z,34.13
2019-06-15T08:10:19.278Z,32.20
2019-06-15T08:11:26.531Z,31.57
2019-06-15T08:12:35.181Z,33.60
2019-06-15T08:13:41.992Z,33.70
2019-06-15T08:14:49.858Z,29.83
2019-06-15T08:15:57.051Z,34.20
2019-06-15T08:17:04.616Z,27.23
2019-06-15T08:18:11.949Z,24.23
2019-06-15T08:19:19.719Z,27.10
2019-06-15T08:20:33.097Z,26.80
2019-06-15T08:21:40.700Z,28.47
2019-06-15T08:22:48.429Z,29.73
2019-06-15T08:23:56.028Z,23.07
2019-06-15T08:25:02.802Z,24.70
2019-06-15T08:26:10.697Z,23.57
2019-06-15T08:27:17.618Z,23.47
2019-06-15T08:28:37.084Z,20.67
2019-06-15T08:29:34.020Z,23.17
2019-06-15T08:30:44.478Z,22.23
2019-06-15T08:31:51.371Z,20.93
2019-06-15T08:32:58.943Z,22.23
2019-06-15T08:34:05.690Z,27.50
2019-06-15T08:35:13.912Z,27.47
2019-06-15T08:36:21.401Z,25.23
2019-06-15T08:37:28.957Z,21.90
2019-06-15T08:38:36.085Z,20.70
2019-06-15T08:39:43.757Z,17.30
2019-06-15T08:40:51.249Z,18.13
2019-06-15T08:41:58.805Z,20.20
2019-06-15T08:43:06.469Z,19.50
2019-06-15T08:44:14.325Z,20.30
2019-06-15T08:45:21.297Z,18.73
2019-06-15T08:46:28.995Z,16.90
2019-06-15T08:47:36.174Z,18.80
2019-06-15T08:48:43.706Z,18.23
2019-06-15T08:49:50.863Z,17.00
2019-06-15T08:50:59.980Z,16.37
2019-06-15T08:52:06.789Z,16.50
2019-06-15T08:53:14.333Z,18.93
2019-06-15T08:54:21.414Z,17.10
2019-06-15T08:55:29.110Z,18.67
2019-06-15T08:56:35.886Z,20.57
2019-06-15T08:57:43.764Z,15.20
2019-06-15T08:58:55.354Z,17.37
2019-06-15T09:00:00.194Z,18.57
2019-06-15T09:01:07.357Z,18.20
2019-06-15T09:02:14.898Z,16.20
2019-06-15T09:03:22.750Z,14.37
2019-06-15T09:04:30.334Z,13.53
2019-06-15T09:05:37.448Z,15.67
2019-06-15T09:06:45.316Z,19.13
2019-06-15T09:07:52.921Z,18.30
2019-06-15T09:09:00.578Z,17.10
2019-06-15T09:10:08.711Z,14.00
2019-06-15T09:11:16.293Z,17.07
2019-06-15T09:12:25.103Z,19.53
2019-06-15T09:13:32.847Z,16.27
2019-06-15T09:14:40.286Z,16.47
2019-06-15T09:15:55.567Z,16.97
2019-06-15T09:17:02.495Z,19.50
2019-06-15T09:18:15.245Z,18.30
2019-06-15T09:19:22.432Z,14.97
2019-06-15T09:20:30.164Z,21.83
2019-06-15T09:21:37.718Z,19.73
2019-06-15T09:22:46.146Z,14.37
2019-06-15T09:23:53.300Z,14.47
2019-06-15T09:25:01.144Z,15.47
2019-06-15T09:26:07.887Z,16.73
2019-06-15T09:27:15.761Z,17.20
2019-06-15T09:28:22.585Z,14.83
2019-06-15T09:29:30.536Z,12.93
2019-06-15T09:30:38.108Z,14.73
2019-06-15T09:31:46.415Z,22.60
2019-06-15T09:32:53.547Z,14.50
2019-06-15T09:34:01.174Z,13.23
2019-06-15T09:35:08.639Z,16.20
2019-06-15T09:36:16.706Z,17.90
2019-06-15T09:37:23.950Z,14.67
2019-06-15T09:38:32.058Z,17.03
2019-06-15T09:39:39.151Z,13.50
2019-06-15T09:40:46.730Z,17.90
2019-06-15T09:41:54.930Z,13.97
2019-06-15T09:43:02.876Z,13.87
2019-06-15T09:44:09.643Z,15.43
2019-06-15T09:45:17.428Z,18.90
2019-06-15T09:46:24.320Z,20.47
2019-06-15T09:47:31.844Z,18.53
2019-06-15T09:48:38.600Z,15.90
2019-06-15T09:49:46.220Z,15.00
2019-06-15T09:50:53.100Z,16.10
2019-06-15T09:52:00.789Z,16.67
2019-06-15T09:53:07.550Z,16.40
2019-06-15T09:54:15.096Z,17.80
2019-06-15T09:55:22.531Z,16.23
2019-06-15T09:56:30.101Z,11.80
2019-06-15T09:57:37.363Z,12.50
2019-06-15T09:58:45.354Z,14.70
2019-06-15T09:59:52.612Z,10.37
2019-06-15T10:01:00.521Z,11.73
2019-06-15T10:02:07.414Z,12.70
2019-06-15T10:03:15.060Z,12.37
2019-06-15T10:04:21.906Z,11.83
2019-06-15T10:05:29.617Z,15.10
2019-06-15T10:06:36.659Z,14.87
2019-06-15T10:07:44.223Z,15.77
2019-06-15T10:08:51.716Z,19.07
2019-06-15T10:09:59.302Z,16.53
2019-06-15T10:11:06.810Z,12.60
2019-06-15T10:12:14.382Z,9.73
2019-06-15T10:13:21.668Z,14.67
2019-06-15T10:14:29.619Z,11.13
2019-06-15T10:15:36.831Z,9.80
2019-06-15T10:16:44.505Z,12.73
2019-06-15T10:17:52.531Z,11.60
2019-06-15T10:19:00.495Z,12.40
2019-06-15T10:20:08.711Z,9.97
2019-06-15T10:21:16.509Z,12.20
2019-06-15T10:22:23.783Z,9.63
2019-06-15T10:23:31.316Z,12.10
2019-06-15T10:24:38.145Z,11.63
2019-06-15T10:25:46.241Z,10.80
2019-06-15T10:26:53.127Z,9.00
2019-06-15T10:28:00.706Z,8.67
2019-06-15T10:29:07.480Z,9.50
2019-06-15T10:30:18.371Z,12.03
2019-06-15T10:31:25.254Z,9.93
2019-06-15T10:32:33.112Z,8.77
2019-06-15T10:33:39.980Z,13.30
2019-06-15T10:34:48.029Z,10.13
2019-06-15T10:35:54.951Z,12.43
2019-06-15T10:37:02.508Z,11.70
2019-06-15T10:38:09.661Z,9.83
2019-06-15T10:39:17.249Z,11.60
2019-06-15T10:40:24.391Z,12.00
2019-06-15T10:41:31.993Z,9.33
2019-06-15T10:42:38.905Z,11.03
2019-06-15T10:43:46.472Z,11.23
2019-06-15T10:44:53.648Z,9.07
2019-06-15T10:46:01.542Z,9.63
2019-06-15T10:47:08.365Z,10.53
2019-06-15T10:48:16.432Z,9.60
2019-06-15T10:49:23.681Z,9.70
2019-06-15T10:50:31.234Z,11.10
2019-06-15T10:51:38.775Z,9.20
2019-06-15T10:52:46.786Z,9.30
2019-06-15T10:53:53.598Z,14.87
2019-06-15T10:55:01.179Z,14.10
2019-06-15T10:56:08.521Z,9.80
2019-06-15T10:57:16.917Z,12.30
2019-06-15T10:58:23.743Z,23.80
2019-06-15T10:59:31.464Z,10.30
2019-06-15T11:00:39.048Z,13.50
2019-06-15T11:01:46.987Z,12.60
2019-06-15T11:02:53.802Z,12.60
2019-06-15T11:04:01.353Z,10.67
2019-06-15T11:05:08.809Z,13.00
2019-06-15T11:06:16.949Z,18.47
2019-06-15T11:07:23.804Z,18.23
2019-06-15T11:08:31.364Z,17.47
2019-06-15T11:09:38.472Z,17.57
2019-06-15T11:11:14.707Z,15.57
2019-06-15T11:12:21.917Z,20.20
2019-06-15T11:13:30.046Z,14.53
2019-06-15T11:14:37.186Z,17.93
2019-06-15T11:15:45.233Z,14.60
2019-06-15T11:16:52.846Z,14.60
2019-06-15T11:18:00.461Z,15.43
2019-06-15T11:19:07.567Z,22.00
2019-06-15T11:20:16.038Z,15.90
2019-06-15T11:21:22.976Z,20.03
2019-06-15T11:22:30.611Z,20.80
2019-06-15T11:23:38.342Z,21.00
2019-06-15T11:24:46.232Z,15.87
2019-06-15T11:25:53.016Z,16.53
2019-06-15T11:27:01.042Z,17.87
2019-06-15T11:28:07.792Z,15.70
2019-06-15T11:29:15.991Z,14.97
2019-06-15T11:30:22.745Z,14.87
2019-06-15T11:31:31.127Z,14.80
2019-06-15T11:32:38.321Z,13.97
2019-06-15T11:33:46.649Z,15.53
2019-06-15T11:34:53.421Z,6.20
2019-06-15T11:36:01.311Z,6.13
2019-06-15T11:37:08.088Z,7.07
2019-06-15T11:38:15.947Z,6.60
2019-06-15T11:39:23.090Z,5.23
2019-06-15T11:40:30.661Z,5.93
2019-06-15T11:41:37.475Z,5.37
2019-06-15T11:42:45.186Z,6.03
2019-06-15T11:43:51.953Z,5.83
2019-06-15T11:44:59.698Z,5.33
2019-06-15T11:46:06.753Z,5.57
2019-06-15T11:47:14.365Z,6.07
2019-06-15T11:48:21.702Z,3.83
2019-06-15T11:49:30.039Z,4.13
2019-06-15T11:50:37.250Z,6.23
2019-06-15T11:51:45.116Z,3.40
2019-06-15T11:52:52.651Z,3.83
2019-06-15T11:54:00.229Z,4.33
2019-06-15T11:55:07.804Z,3.40
2019-06-15T11:56:15.729Z,5.07
2019-06-15T11:57:22.657Z,4.90
2019-06-15T11:58:30.557Z,4.33
2019-06-15T11:59:38.027Z,3.70
2019-06-15T12:00:45.930Z,3.83
2019-06-15T12:01:52.744Z,5.17
2019-06-15T12:03:00.320Z,3.30
2019-06-15T12:04:07.586Z,3.67
2019-06-15T12:05:15.594Z,3.73
2019-06-15T12:06:22.769Z,4.53
2019-06-15T12:07:30.387Z,2.43
2019-06-15T12:08:37.543Z,2.30
2019-06-15T12:09:45.095Z,2.33
2019-06-15T12:10:51.871Z,4.47
2019-06-15T12:11:59.420Z,3.33
2019-06-15T12:13:06.331Z,4.20
2019-06-15T12:14:13.923Z,2.33
2019-06-15T12:15:21.359Z,1.30
2019-06-15T12:16:28.919Z,1.80
2019-06-15T12:17:36.011Z,0.80
2019-06-15T12:18:44.520Z,0.80
2019-06-15T12:19:51.293Z,1.70
2019-06-15T12:20:59.126Z,0.70
2019-06-15T12:22:06.455Z,1.03
2019-06-15T12:23:16.414Z,1.23
2019-06-15T12:24:23.266Z,2.83
2019-06-15T12:25:30.963Z,0.70
2019-06-15T12:26:37.713Z,1.57
2019-06-15T12:27:45.269Z,3.97
2019-06-15T12:28:52.939Z,2.40
2019-06-15T12:30:02.440Z,0.77
2019-06-15T12:31:09.240Z,1.20
2019-06-15T12:32:17.372Z,2.27
2019-06-15T12:33:24.731Z,2.20
2019-06-15T12:34:32.709Z,2.00
2019-06-15T12:35:39.576Z,0.67
2019-06-15T12:36:47.110Z,2.10
2019-06-15T12:37:53.912Z,0.70
2019-06-15T12:39:01.865Z,1.47
2019-06-15T12:40:09.068Z,0.47
2019-06-15T12:41:16.707Z,1.20
2019-06-15T12:42:24.035Z,1.57
2019-06-15T12:43:32.012Z,0.97
2019-06-15T12:44:39.088Z,0.67
2019-06-15T12:45:47.294Z,0.50
2019-06-15T12:46:54.455Z,3.90
2019-06-15T12:48:01.996Z,0.70
2019-06-15T12:49:08.751Z,0.60
2019-06-15T12:50:16.396Z,2.87
2019-06-15T12:51:23.692Z,0.70
2019-06-15T12:52:31.236Z,2.10
2019-06-15T12:53:38.386Z,3.10
2019-06-15T12:54:46.274Z,13.47
2019-06-15T12:55:53.387Z,1.77
2019-06-15T12:57:01.885Z,1.00
2019-06-15T12:58:08.639Z,3.70
2019-06-15T12:59:16.205Z,1.77
2019-06-15T13:00:31.732Z,2.20
2019-06-15T13:01:39.579Z,1.20
2019-06-15T13:02:46.780Z,2.10
2019-06-15T13:03:54.391Z,1.43
2019-06-15T13:05:01.190Z,3.13
2019-06-15T13:06:09.145Z,0.70
2019-06-15T13:07:16.410Z,1.23
2019-06-15T13:08:24.709Z,2.70
2019-06-15T13:09:31.497Z,1.40
2019-06-15T13:10:39.833Z,2.00
2019-06-15T13:11:46.641Z,1.27
2019-06-15T13:12:54.223Z,3.13
2019-06-15T13:14:01.384Z,0.70
2019-06-15T13:15:09.527Z,3.43
2019-06-15T13:16:16.913Z,0.83
2019-06-15T13:17:24.463Z,3.43
2019-06-15T13:18:31.243Z,2.93
2019-06-15T13:19:39.099Z,1.20
2019-06-15T13:20:45.850Z,1.17
2019-06-15T13:21:54.070Z,3.87
2019-06-15T13:23:01.206Z,1.17
2019-06-15T13:24:08.868Z,1.30
2019-06-15T13:25:16.122Z,2.20
2019-06-15T13:26:23.920Z,1.10
2019-06-15T13:27:31.406Z,1.77
2019-06-15T13:28:39.615Z,1.43
2019-06-15T13:29:46.382Z,1.40
2019-06-15T13:30:54.040Z,1.40
2019-06-15T13:32:01.313Z,2.70
2019-06-15T13:33:09.124Z,1.57
2019-06-15T13:34:16.201Z,1.80
2019-06-15T13:35:24.130Z,1.90
2019-06-15T13:36:30.873Z,1.10
2019-06-15T13:37:42.279Z,10.00
2019-06-15T13:38:47.381Z,4.50
2019-06-15T13:39:55.438Z,1.00
2019-06-15T13:41:02.182Z,5.47
2019-06-15T13:42:10.378Z,5.20
2019-06-15T13:43:17.164Z,2.50
2019-06-15T13:44:24.874Z,2.80
2019-06-15T13:45:31.619Z,4.10
2019-06-15T13:46:40.033Z,1.27
2019-06-15T13:47:47.851Z,5.27
2019-06-15T13:48:55.387Z,1.90
2019-06-15T13:50:02.150Z,8.40
2019-06-15T13:51:10.214Z,3.07
2019-06-15T13:52:17.694Z,2.17
2019-06-15T13:53:25.351Z,1.17
2019-06-15T13:54:32.101Z,1.40
2019-06-15T13:55:40.133Z,1.67
2019-06-15T13:56:47.097Z,1.13
2019-06-15T13:57:54.653Z,2.23
2019-06-15T13:59:01.413Z,1.70
2019-06-15T14:00:10.727Z,1.63
2019-06-15T14:01:33.040Z,2.00
2019-06-15T14:02:27.131Z,3.83
2019-06-15T14:03:34.064Z,4.50
2019-06-15T14:04:41.933Z,2.43
2019-06-15T14:05:49.103Z,3.90
2019-06-15T14:06:57.033Z,5.33
2019-06-15T14:08:04.137Z,3.13
2019-06-15T14:09:11.695Z,1.80
2019-06-15T14:10:18.542Z,1.83
2019-06-15T14:11:26.095Z,2.50
2019-06-15T14:12:32.870Z,1.70
2019-06-15T14:13:40.457Z,3.40
2019-06-15T14:14:47.580Z,5.53
2019-06-15T14:15:56.877Z,1.50
2019-06-15T14:17:03.660Z,3.90
2019-06-15T14:18:11.215Z,3.97
2019-06-15T14:19:18.011Z,1.80
2019-06-15T14:20:25.564Z,1.40
2019-06-15T14:21:32.345Z,3.00
2019-06-15T14:22:40.230Z,2.20
2019-06-15T14:23:46.959Z,1.70
2019-06-15T14:24:54.925Z,2.77
2019-06-15T14:26:01.683Z,1.73
2019-06-15T14:27:09.262Z,2.10
2019-06-15T14:28:16.332Z,2.03
2019-06-15T14:29:24.371Z,3.40
2019-06-15T14:30:31.877Z,2.10
2019-06-15T14:31:49.554Z,4.10
2019-06-15T14:32:48.199Z,2.10
2019-06-15T14:33:55.753Z,3.70
2019-06-15T14:35:02.587Z,4.10
2019-06-15T14:36:10.128Z,4.23
2019-06-15T14:37:16.927Z,3.00
2019-06-15T14:38:24.535Z,1.93